createdAt,value
2018-12-07T00:02:07.218Z,21.32
2018-12-07T00:04:33.217Z,21.32
2018-12-07T00:06:59.186Z,21.31
2018-12-07T00:09:25.182Z,21.31
2018-12-07T00:11:51.164Z,21.32
2018-12-07T00:14:17.143Z,21.32
2018-12-07T00:16:43.147Z,21.31
2018-12-07T00:19:09.127Z,21.30
2018-12-07T00:21:35.120Z,21.30
2018-12-07T00:24:01.119Z,21.30
2018-12-07T00:26:27.182Z,21.30
2018-12-07T00:28:53.173Z,21.29
2018-12-07T00:31:19.140Z,21.30
2018-12-07T00:33:45.122Z,21.30
2018-12-07T00:36:11.109Z,21.30
2018-12-07T00:38:37.109Z,21.30
2018-12-07T00:41:03.086Z,21.32
2018-12-07T00:43:29.055Z,21.31
2018-12-07T00:45:55.072Z,21.31
2018-12-07T00:48:21.045Z,21.29
2018-12-07T00:50:47.029Z,21.29
2018-12-07T00:53:13.031Z,21.28
2018-12-07T00:55:38.997Z,21.28
2018-12-07T00:58:04.998Z,21.28
2018-12-07T01:00:30.989Z,21.27
2018-12-07T01:02:56.972Z,21.29
2018-12-07T01:05:22.943Z,21.28
2018-12-07T01:07:48.952Z,21.24
2018-12-07T01:10:14.923Z,21.27
2018-12-07T01:12:40.907Z,21.26
2018-12-07T01:15:06.894Z,21.28
2018-12-07T01:17:32.892Z,21.26
2018-12-07T01:19:58.868Z,21.28
2018-12-07T01:22:24.855Z,21.27
2018-12-07T01:24:50.851Z,21.25
2018-12-07T01:27:16.830Z,21.26
2018-12-07T01:29:42.828Z,21.25
2018-12-07T01:32:08.871Z,21.28
2018-12-07T01:34:34.846Z,21.23
2018-12-07T01:37:00.836Z,21.26
2018-12-07T01:39:26.823Z,21.26
2018-12-07T01:41:52.827Z,21.30
2018-12-07T01:44:18.800Z,21.29
2018-12-07T01:46:44.827Z,21.28
2018-12-07T01:49:10.799Z,21.31
2018-12-07T01:51:36.794Z,21.36
2018-12-07T01:54:02.784Z,21.30
2018-12-07T01:56:28.814Z,21.32
2018-12-07T01:58:54.791Z,21.35
2018-12-07T02:01:20.784Z,21.31
2018-12-07T02:03:46.773Z,21.33
2018-12-07T02:06:12.761Z,21.30
2018-12-07T02:08:38.751Z,21.33
2018-12-07T02:11:04.755Z,21.33
2018-12-07T02:13:30.727Z,21.32
2018-12-07T02:15:56.712Z,21.33
2018-12-07T02:18:22.702Z,21.33
2018-12-07T02:20:48.699Z,21.34
2018-12-07T02:23:14.669Z,21.31
2018-12-07T02:25:40.665Z,21.31
2018-12-07T02:28:06.636Z,21.30
2018-12-07T02:30:32.632Z,21.31
2018-12-07T02:32:58.621Z,21.31
2018-12-07T02:35:24.621Z,21.32
2018-12-07T02:37:50.591Z,21.32
2018-12-07T02:40:16.566Z,21.31
2018-12-07T02:42:42.563Z,21.33
2018-12-07T02:45:08.542Z,21.31
2018-12-07T02:47:34.532Z,21.30
2018-12-07T02:50:00.546Z,21.32
2018-12-07T02:52:26.494Z,21.31
2018-12-07T02:54:52.520Z,21.31
2018-12-07T02:57:18.508Z,21.29
2018-12-07T02:59:44.499Z,21.31
2018-12-07T03:02:10.517Z,21.32
2018-12-07T03:04:36.522Z,21.30
2018-12-07T03:07:02.500Z,21.32
2018-12-07T03:09:28.487Z,21.31
2018-12-07T03:11:54.488Z,21.28
2018-12-07T03:14:20.477Z,21.28
2018-12-07T03:16:46.448Z,21.27
2018-12-07T03:19:12.431Z,21.28
2018-12-07T03:21:38.424Z,21.29
2018-12-07T03:24:04.418Z,21.28
2018-12-07T03:26:30.448Z,21.26
2018-12-07T03:28:56.443Z,21.27
2018-12-07T03:31:22.564Z,21.30
2018-12-07T03:33:48.551Z,21.28
2018-12-07T03:36:14.538Z,21.28
2018-12-07T03:38:40.542Z,21.26
2018-12-07T03:41:06.511Z,21.28
2018-12-07T03:43:32.509Z,21.27
2018-12-07T03:45:58.477Z,21.25
2018-12-07T03:48:24.476Z,21.28
2018-12-07T03:50:50.456Z,21.25
2018-12-07T03:53:16.459Z,21.25
2018-12-07T03:55:42.428Z,21.23
2018-12-07T03:58:08.407Z,21.24
2018-12-07T04:00:34.405Z,21.23
2018-12-07T04:03:00.381Z,21.23
2018-12-07T04:05:26.376Z,21.26
2018-12-07T04:07:52.386Z,21.27
2018-12-07T04:10:18.371Z,21.23
2018-12-07T04:12:44.347Z,21.22
2018-12-07T04:15:10.368Z,21.25
2018-12-07T04:17:36.331Z,21.25
2018-12-07T04:20:02.296Z,21.23
2018-12-07T04:22:28.289Z,21.24
2018-12-07T04:24:54.303Z,21.21
2018-12-07T04:27:20.279Z,21.23
2018-12-07T04:29:46.245Z,21.23
2018-12-07T04:32:12.241Z,21.22
2018-12-07T04:34:38.215Z,21.21
2018-12-07T04:37:04.228Z,21.20
2018-12-07T04:39:30.216Z,21.21
2018-12-07T04:41:56.201Z,21.20
2018-12-07T04:44:22.190Z,21.23
2018-12-07T04:46:48.192Z,21.23
2018-12-07T04:49:14.162Z,21.20
2018-12-07T04:51:40.157Z,21.20
2018-12-07T04:54:06.137Z,21.19
2018-12-07T04:56:33.761Z,21.19
2018-12-07T04:58:58.119Z,21.19
2018-12-07T05:01:24.122Z,21.21
2018-12-07T05:03:50.095Z,21.17
2018-12-07T05:06:16.079Z,21.21
2018-12-07T05:08:42.067Z,21.19
2018-12-07T05:11:08.079Z,21.18
2018-12-07T05:13:34.044Z,21.18
2018-12-07T05:16:00.039Z,21.19
2018-12-07T05:18:26.030Z,21.15
2018-12-07T05:20:52.021Z,21.16
2018-12-07T05:23:18.016Z,21.11
2018-12-07T05:25:44.026Z,21.14
2018-12-07T05:28:09.996Z,21.16
2018-12-07T05:30:35.990Z,21.17
2018-12-07T05:33:01.983Z,21.18
2018-12-07T05:35:28.008Z,21.19
2018-12-07T05:37:54.035Z,21.21
2018-12-07T05:40:20.020Z,21.16
2018-12-07T05:42:46.048Z,21.14
2018-12-07T05:45:12.039Z,21.12
2018-12-07T05:47:38.057Z,21.10
2018-12-07T05:50:04.049Z,21.10
2018-12-07T05:52:30.052Z,21.08
2018-12-07T05:54:56.167Z,21.08
2018-12-07T05:57:22.188Z,21.09
2018-12-07T05:59:48.181Z,21.08
2018-12-07T06:02:14.171Z,21.07
2018-12-07T06:04:40.157Z,21.06
2018-12-07T06:07:06.165Z,21.10
2018-12-07T06:09:32.150Z,21.10
2018-12-07T06:11:58.141Z,21.13
2018-12-07T06:14:24.110Z,21.11
2018-12-07T06:16:50.128Z,21.13
2018-12-07T06:19:16.136Z,21.13
2018-12-07T06:21:42.158Z,21.12
2018-12-07T06:24:08.147Z,21.13
2018-12-07T06:26:34.198Z,21.14
2018-12-07T06:29:00.157Z,21.17
2018-12-07T06:31:26.288Z,21.17
2018-12-07T06:33:52.349Z,21.16
2018-12-07T06:36:18.356Z,21.13
2018-12-07T06:38:44.327Z,21.13
2018-12-07T06:41:10.342Z,21.13
2018-12-07T06:43:36.348Z,21.14
2018-12-07T06:46:02.328Z,21.13
2018-12-07T06:48:28.369Z,21.13
2018-12-07T06:50:54.333Z,21.14
2018-12-07T06:53:20.313Z,21.16
2018-12-07T06:55:46.358Z,21.17
2018-12-07T06:58:12.331Z,21.16
2018-12-07T07:00:38.366Z,21.13
2018-12-07T07:03:04.359Z,21.15
2018-12-07T07:05:30.365Z,21.15
2018-12-07T07:07:56.388Z,21.15
2018-12-07T07:10:22.400Z,21.13
2018-12-07T07:12:48.405Z,21.11
2018-12-07T07:15:14.427Z,21.13
2018-12-07T07:17:40.415Z,21.16
2018-12-07T07:20:06.403Z,21.14
2018-12-07T07:22:32.383Z,21.13
2018-12-07T07:24:58.379Z,21.17
2018-12-07T07:27:24.363Z,21.17
2018-12-07T07:29:50.353Z,21.15
2018-12-07T07:32:16.344Z,21.15
2018-12-07T07:34:42.487Z,21.14
2018-12-07T07:37:08.472Z,21.17
2018-12-07T07:39:34.486Z,21.16
2018-12-07T07:42:00.492Z,21.06
2018-12-07T07:44:26.538Z,21.17
2018-12-07T07:46:52.515Z,21.16
2018-12-07T07:49:18.663Z,21.16
2018-12-07T07:51:44.670Z,21.19
2018-12-07T07:54:10.661Z,21.18
2018-12-07T07:56:36.666Z,21.19
2018-12-07T07:59:02.682Z,21.16
2018-12-07T08:01:28.659Z,21.18
2018-12-07T08:03:54.655Z,21.20
2018-12-07T08:06:20.654Z,21.21
2018-12-07T08:08:46.650Z,21.21
2018-12-07T08:11:12.633Z,21.21
2018-12-07T08:13:38.625Z,21.24
2018-12-07T08:16:04.653Z,21.24
2018-12-07T08:18:30.658Z,21.24
2018-12-07T08:20:56.661Z,21.26
2018-12-07T08:23:22.758Z,21.26
2018-12-07T08:25:48.764Z,21.24
2018-12-07T08:28:14.811Z,21.25
2018-12-07T08:30:40.792Z,21.28
2018-12-07T08:33:06.905Z,21.26
2018-12-07T08:35:33.112Z,21.28
2018-12-07T08:37:59.097Z,21.29
2018-12-07T08:40:25.109Z,21.27
2018-12-07T08:42:51.107Z,21.26
2018-12-07T08:45:17.179Z,21.26
2018-12-07T08:47:43.159Z,21.26
2018-12-07T08:50:09.159Z,21.25
2018-12-07T08:52:35.172Z,21.25
2018-12-07T08:55:01.154Z,21.25
2018-12-07T08:57:27.145Z,21.24
2018-12-07T08:59:53.154Z,21.24
2018-12-07T09:02:19.135Z,21.26
2018-12-07T09:04:45.142Z,21.26
2018-12-07T09:07:11.131Z,21.28
2018-12-07T09:09:37.216Z,21.25
2018-12-07T09:12:03.120Z,21.28
2018-12-07T09:14:29.115Z,21.24
2018-12-07T09:16:55.142Z,21.27
2018-12-07T09:19:21.109Z,21.25
2018-12-07T09:21:47.101Z,21.22
2018-12-07T09:24:13.076Z,21.25
2018-12-07T09:26:39.063Z,21.25
2018-12-07T09:29:05.053Z,21.29
2018-12-07T09:31:31.062Z,21.29
2018-12-07T09:33:57.065Z,21.31
2018-12-07T09:36:23.114Z,21.32
2018-12-07T09:38:49.180Z,21.28
2018-12-07T09:41:15.082Z,21.29
2018-12-07T09:43:41.058Z,21.31
2018-12-07T09:46:07.063Z,21.30
2018-12-07T09:48:33.061Z,21.32
2018-12-07T09:50:59.058Z,21.34
2018-12-07T09:53:25.050Z,21.37
2018-12-07T09:55:51.044Z,21.39
2018-12-07T09:58:17.023Z,21.41
2018-12-07T10:00:43.026Z,21.42
2018-12-07T10:03:09.024Z,21.40
2018-12-07T10:05:35.034Z,21.43
2018-12-07T10:08:01.021Z,21.47
2018-12-07T10:10:27.024Z,21.51
2018-12-07T10:12:53.039Z,21.51
2018-12-07T10:15:19.009Z,21.53
2018-12-07T10:17:45.037Z,21.54
2018-12-07T10:20:11.024Z,21.58
2018-12-07T10:22:37.915Z,21.58
2018-12-07T10:25:03.044Z,21.58
2018-12-07T10:27:29.019Z,21.64
2018-12-07T10:29:55.000Z,21.62
2018-12-07T10:32:20.994Z,21.66
2018-12-07T10:34:47.009Z,21.63
2018-12-07T10:37:12.983Z,21.64
2018-12-07T10:39:38.988Z,21.64
2018-12-07T10:42:04.964Z,21.63
2018-12-07T10:44:30.978Z,21.64
2018-12-07T10:46:57.028Z,21.67
2018-12-07T10:49:22.943Z,21.65
2018-12-07T10:51:48.938Z,21.63
2018-12-07T10:54:14.913Z,21.69
2018-12-07T10:56:40.886Z,21.67
2018-12-07T10:59:06.890Z,21.66
2018-12-07T11:01:32.889Z,21.69
2018-12-07T11:03:58.886Z,21.69
2018-12-07T11:06:24.887Z,21.70
2018-12-07T11:08:50.890Z,21.70
2018-12-07T11:11:16.864Z,21.69
2018-12-07T11:13:42.873Z,21.70
2018-12-07T11:16:08.858Z,21.68
2018-12-07T11:18:34.845Z,21.69
2018-12-07T11:21:00.838Z,21.72
2018-12-07T11:23:26.858Z,21.73
2018-12-07T11:25:52.854Z,21.73
2018-12-07T11:28:18.837Z,21.76
2018-12-07T11:30:44.824Z,21.75
2018-12-07T11:33:10.824Z,21.77
2018-12-07T11:35:36.800Z,21.76
2018-12-07T11:38:02.779Z,21.79
2018-12-07T11:40:31.529Z,21.77
2018-12-07T11:42:57.515Z,21.78
2018-12-07T11:45:23.484Z,21.81
2018-12-07T11:47:49.479Z,21.80
2018-12-07T11:50:15.468Z,21.79
2018-12-07T11:52:41.475Z,21.81
2018-12-07T11:55:07.472Z,21.82
2018-12-07T11:57:33.465Z,21.84
2018-12-07T11:59:59.464Z,21.83
2018-12-07T12:02:26.449Z,21.88
2018-12-07T12:04:51.449Z,21.87
2018-12-07T12:07:17.451Z,21.88
2018-12-07T12:09:43.490Z,21.90
2018-12-07T12:12:09.518Z,21.86
2018-12-07T12:14:35.490Z,21.87
2018-12-07T12:17:01.518Z,21.86
2018-12-07T12:19:27.509Z,21.84
2018-12-07T12:21:53.495Z,21.84
2018-12-07T12:24:19.475Z,21.86
2018-12-07T12:26:45.507Z,21.89
2018-12-07T12:29:11.498Z,21.94
2018-12-07T12:31:37.495Z,21.90
2018-12-07T12:34:03.476Z,21.89
2018-12-07T12:36:29.455Z,21.90
2018-12-07T12:38:55.447Z,21.90
2018-12-07T12:41:22.813Z,21.87
2018-12-07T12:43:47.470Z,21.86
2018-12-07T12:46:13.454Z,21.86
2018-12-07T12:48:39.444Z,21.87
2018-12-07T12:51:05.425Z,21.81
2018-12-07T12:53:31.404Z,21.81
2018-12-07T12:55:57.400Z,21.81
2018-12-07T12:58:23.389Z,21.83
2018-12-07T13:00:49.382Z,21.81
2018-12-07T13:03:15.361Z,21.76
2018-12-07T13:05:41.360Z,21.77
2018-12-07T13:08:07.329Z,21.79
2018-12-07T13:10:33.328Z,21.75
2018-12-07T13:12:59.321Z,21.74
2018-12-07T13:15:25.305Z,21.73
2018-12-07T13:17:51.274Z,21.72
2018-12-07T13:20:17.278Z,21.73
2018-12-07T13:22:43.268Z,21.73
2018-12-07T13:25:09.253Z,21.70
2018-12-07T13:27:35.246Z,21.71
2018-12-07T13:30:01.236Z,21.72
2018-12-07T13:32:27.222Z,21.74
2018-12-07T13:34:53.215Z,21.75
2018-12-07T13:37:19.204Z,21.78
2018-12-07T13:39:45.295Z,21.76
2018-12-07T13:42:11.195Z,21.75
2018-12-07T13:44:37.261Z,21.72
2018-12-07T13:47:03.181Z,21.73
2018-12-07T13:49:29.278Z,21.68
2018-12-07T13:51:55.308Z,21.68
2018-12-07T13:54:21.357Z,21.68
2018-12-07T13:56:47.159Z,21.68
2018-12-07T13:59:13.168Z,21.70
2018-12-07T14:01:39.127Z,21.67
2018-12-07T14:04:05.310Z,21.65
2018-12-07T14:06:31.732Z,21.66
2018-12-07T14:08:57.684Z,21.63
2018-12-07T14:11:23.544Z,21.63
2018-12-07T14:13:52.470Z,21.62
2018-12-07T14:16:18.309Z,21.61
2018-12-07T14:18:46.115Z,21.57
2018-12-07T14:21:11.952Z,21.58
2018-12-07T14:23:38.017Z,21.56
2018-12-07T14:26:04.091Z,21.55
2018-12-07T14:28:30.166Z,21.52
2018-12-07T14:30:56.108Z,21.48
2018-12-07T14:33:22.005Z,21.48
2018-12-07T14:35:47.969Z,21.47
2018-12-07T14:38:14.082Z,21.51
2018-12-07T14:40:40.748Z,21.51
2018-12-07T14:43:07.714Z,21.49
2018-12-07T14:45:32.549Z,21.51
2018-12-07T14:47:58.615Z,21.49
2018-12-07T14:50:24.451Z,21.46
2018-12-07T14:52:50.476Z,21.47
2018-12-07T14:55:16.606Z,21.48
2018-12-07T14:57:42.445Z,21.46
2018-12-07T15:00:08.602Z,21.46
2018-12-07T15:02:34.533Z,21.43
2018-12-07T15:05:00.531Z,21.40
2018-12-07T15:07:26.574Z,21.38
2018-12-07T15:09:52.732Z,21.39
2018-12-07T15:12:18.633Z,21.40
2018-12-07T15:14:44.639Z,21.37
2018-12-07T15:17:10.587Z,21.35
2018-12-07T15:19:36.716Z,21.39
2018-12-07T15:22:02.770Z,21.37
2018-12-07T15:24:28.683Z,21.41
2018-12-07T15:26:54.655Z,21.42
2018-12-07T15:29:20.579Z,21.40
2018-12-07T15:31:46.600Z,21.40
2018-12-07T15:34:12.566Z,21.37
2018-12-07T15:36:40.220Z,21.37
2018-12-07T15:39:06.302Z,21.39
2018-12-07T15:41:32.229Z,21.37
2018-12-07T15:43:58.239Z,21.37
2018-12-07T15:46:24.350Z,21.37
2018-12-07T15:48:50.289Z,21.38
2018-12-07T15:51:16.444Z,21.43
2018-12-07T15:53:42.215Z,21.45
2018-12-07T15:56:08.254Z,21.47
2018-12-07T15:58:34.231Z,21.44
2018-12-07T16:01:00.230Z,21.39
2018-12-07T16:03:26.317Z,21.41
2018-12-07T16:05:52.371Z,21.42
2018-12-07T16:08:24.878Z,21.42
2018-12-07T16:10:48.944Z,21.39
2018-12-07T16:13:10.373Z,21.42
2018-12-07T16:15:36.497Z,21.41
2018-12-07T16:18:02.324Z,21.43
2018-12-07T16:20:28.382Z,21.48
2018-12-07T16:22:54.382Z,21.46
2018-12-07T16:25:20.689Z,21.52
2018-12-07T16:27:46.396Z,21.52
2018-12-07T16:30:12.595Z,21.53
2018-12-07T16:32:38.472Z,21.54
2018-12-07T16:35:04.420Z,21.53
2018-12-07T16:37:30.434Z,21.57
2018-12-07T16:39:56.445Z,21.62
2018-12-07T16:42:22.577Z,21.61
2018-12-07T16:44:48.579Z,21.61
2018-12-07T16:47:14.441Z,21.61
2018-12-07T16:49:40.414Z,21.63
2018-12-07T16:52:06.450Z,21.63
2018-12-07T16:54:32.554Z,21.61
2018-12-07T16:56:58.438Z,21.62
2018-12-07T16:59:24.651Z,21.65
2018-12-07T17:01:50.433Z,21.62
2018-12-07T17:04:16.373Z,21.63
2018-12-07T17:06:42.455Z,21.61
2018-12-07T17:09:08.632Z,21.59
2018-12-07T17:11:34.639Z,21.62
2018-12-07T17:14:00.666Z,21.61
2018-12-07T17:16:26.452Z,21.62
2018-12-07T17:18:52.647Z,21.60
2018-12-07T17:21:18.542Z,21.61
2018-12-07T17:23:44.609Z,21.61
2018-12-07T17:26:10.590Z,21.61
2018-12-07T17:28:36.454Z,21.61
2018-12-07T17:31:02.443Z,21.62
2018-12-07T17:33:28.498Z,21.63
2018-12-07T17:35:54.468Z,21.63
2018-12-07T17:38:20.454Z,21.61
2018-12-07T17:40:46.479Z,21.60
2018-12-07T17:43:13.017Z,21.62
2018-12-07T17:45:39.242Z,21.60
2018-12-07T17:48:05.117Z,21.60
2018-12-07T17:50:37.282Z,21.60
2018-12-07T17:53:03.654Z,21.59
2018-12-07T17:55:29.896Z,21.62
2018-12-07T17:57:55.953Z,21.64
2018-12-07T18:00:23.050Z,21.63
2018-12-07T18:02:48.934Z,21.64
2018-12-07T18:05:15.264Z,21.61
2018-12-07T18:07:41.655Z,21.59
2018-12-07T18:10:07.816Z,21.59
2018-12-07T18:12:33.658Z,21.60
2018-12-07T18:15:02.409Z,21.58
2018-12-07T18:17:28.480Z,21.59
2018-12-07T18:19:54.340Z,21.56
2018-12-07T18:22:20.378Z,21.53
2018-12-07T18:24:46.567Z,21.48
2018-12-07T18:27:12.597Z,21.51
2018-12-07T18:29:38.410Z,21.52
2018-12-07T18:32:04.461Z,21.52
2018-12-07T18:34:30.374Z,21.54
2018-12-07T18:36:56.308Z,21.51
2018-12-07T18:39:22.313Z,21.49
2018-12-07T18:41:48.352Z,21.52
2018-12-07T18:44:14.407Z,21.50
2018-12-07T18:46:40.339Z,21.51
2018-12-07T18:49:06.631Z,21.48
2018-12-07T18:51:34.698Z,21.44
2018-12-07T18:54:01.811Z,21.47
2018-12-07T18:56:27.856Z,21.46
2018-12-07T18:58:54.150Z,21.43
2018-12-07T19:01:20.159Z,21.42
2018-12-07T19:03:46.133Z,21.43
2018-12-07T19:06:12.192Z,21.43
2018-12-07T19:08:41.160Z,21.44
2018-12-07T19:11:05.106Z,21.46
2018-12-07T19:16:06.237Z,21.45
2018-12-07T19:18:32.541Z,21.47
2018-12-07T19:20:58.238Z,21.46
2018-12-07T19:23:24.575Z,21.47
2018-12-07T19:25:50.398Z,21.46
2018-12-07T19:28:16.340Z,21.48
2018-12-07T19:30:42.357Z,21.46
2018-12-07T19:33:08.706Z,21.46
2018-12-07T19:35:34.735Z,21.47
2018-12-07T19:38:00.783Z,21.50
2018-12-07T19:40:26.849Z,21.49
2018-12-07T19:42:52.926Z,21.52
2018-12-07T19:45:18.841Z,21.51
2018-12-07T19:47:45.011Z,21.50
2018-12-07T19:50:11.343Z,21.51
2018-12-07T19:52:37.041Z,21.50
2018-12-07T19:55:03.382Z,21.50
2018-12-07T19:57:29.032Z,21.49
2018-12-07T19:59:55.069Z,21.52
2018-12-07T20:02:24.545Z,21.53
2018-12-07T20:04:50.677Z,21.54
2018-12-07T20:07:16.785Z,21.54
2018-12-07T20:09:42.787Z,21.54
2018-12-07T20:12:08.649Z,21.50
2018-12-07T20:14:34.502Z,21.51
2018-12-07T20:17:05.274Z,21.50
2018-12-07T20:19:28.207Z,21.47
2018-12-07T20:21:55.662Z,21.47
2018-12-07T20:24:21.855Z,21.44
2018-12-07T20:26:47.931Z,21.44
2018-12-07T20:29:13.911Z,21.46
2018-12-07T20:31:39.913Z,21.43
2018-12-07T20:34:06.056Z,21.42
2018-12-07T20:36:32.495Z,21.41
2018-12-07T20:38:58.318Z,21.38
2018-12-07T20:41:26.627Z,21.40
2018-12-07T20:43:53.917Z,21.39
2018-12-07T20:46:18.361Z,21.38
2018-12-07T20:48:44.444Z,21.40
2018-12-07T20:51:10.515Z,21.40
2018-12-07T20:53:36.412Z,21.40
2018-12-07T20:56:02.396Z,21.40
2018-12-07T20:58:28.427Z,21.41
2018-12-07T21:00:59.211Z,21.39
2018-12-07T21:03:20.383Z,21.40
2018-12-07T21:05:46.420Z,21.41
2018-12-07T21:08:12.634Z,21.42
2018-12-07T21:10:38.495Z,21.44
2018-12-07T21:13:04.551Z,21.42
2018-12-07T21:15:30.411Z,21.41
2018-12-07T21:17:56.573Z,21.45
2018-12-07T21:20:22.618Z,21.44
2018-12-07T21:22:48.318Z,21.44
2018-12-07T21:25:14.282Z,21.43
2018-12-07T21:27:40.293Z,21.45
2018-12-07T21:30:06.707Z,21.47
2018-12-07T21:32:32.431Z,21.47
2018-12-07T21:34:58.376Z,21.50
2018-12-07T21:37:24.579Z,21.52
2018-12-07T21:39:50.480Z,21.49
2018-12-07T21:42:18.303Z,21.53
2018-12-07T21:44:42.501Z,21.49
2018-12-07T21:47:08.540Z,21.51
2018-12-07T21:49:34.543Z,21.53
2018-12-07T21:52:00.710Z,21.52
2018-12-07T21:54:26.463Z,21.55
2018-12-07T21:56:52.556Z,21.55
2018-12-07T21:59:18.430Z,21.53
2018-12-07T22:01:44.573Z,21.56
2018-12-07T22:04:10.568Z,21.56
2018-12-07T22:06:36.515Z,21.54
2018-12-07T22:09:02.653Z,21.54
2018-12-07T22:11:28.409Z,21.55
2018-12-07T22:13:54.352Z,21.54
2018-12-07T22:16:20.362Z,21.53
2018-12-07T22:18:46.557Z,21.53
2018-12-07T22:21:12.571Z,21.49
2018-12-07T22:23:38.404Z,21.53
2018-12-07T22:26:04.366Z,21.54
2018-12-07T22:28:30.468Z,21.54
2018-12-07T22:30:56.415Z,21.54
2018-12-07T22:33:22.542Z,21.56
2018-12-07T22:35:48.526Z,21.54
2018-12-07T22:38:14.366Z,21.56
2018-12-07T22:40:40.649Z,21.54
2018-12-07T22:43:06.647Z,21.53
2018-12-07T22:45:32.377Z,21.53
2018-12-07T22:47:58.369Z,21.56
2018-12-07T22:50:24.369Z,21.57
2018-12-07T22:52:50.337Z,21.56
2018-12-07T22:55:16.341Z,21.55
2018-12-07T22:57:42.318Z,21.57
2018-12-07T23:00:08.311Z,21.55
2018-12-07T23:02:34.436Z,21.55
2018-12-07T23:05:00.441Z,21.54
2018-12-07T23:07:26.418Z,21.54
2018-12-07T23:09:52.412Z,21.56
2018-12-07T23:12:18.402Z,21.55
2018-12-07T23:14:44.419Z,21.56
2018-12-07T23:17:10.404Z,21.56
2018-12-07T23:19:36.388Z,21.56
2018-12-07T23:22:02.361Z,21.57
2018-12-07T23:24:28.383Z,21.58
2018-12-07T23:26:54.375Z,21.58
2018-12-07T23:29:20.360Z,21.57
2018-12-07T23:31:46.345Z,21.57
2018-12-07T23:34:12.420Z,21.54
2018-12-07T23:36:38.312Z,21.55
2018-12-07T23:39:04.293Z,21.54
2018-12-07T23:41:30.393Z,21.54
2018-12-07T23:43:56.383Z,21.54
2018-12-07T23:46:22.363Z,21.51
2018-12-07T23:48:48.351Z,21.52
2018-12-07T23:51:14.339Z,21.53
2018-12-07T23:53:40.320Z,21.50
2018-12-07T23:56:06.308Z,21.51
2018-12-07T23:58:32.312Z,21.49
